Weather observations for the past three days for
Moorhead Municipal Airport
Imperial (Metric)
Date Time (cdt) Wind (mph) Vis. (mi.) Weather Sky Cond. Temperature (ºF) Relative Humidity Wind Chill (°F) Heat Index (°F) Pressure Precipitation (in)
Air Dwpt 6 hour altimeter (in) sea level (mb) 1 hr 3 hr 6 hr
Max. Min.
10 11:55 N 15 G 25 10.00 Fair CLR 50 30.2 47% 45 30.22 0.0
10 11:35 NW 17 G 25 10.00 Fair CLR 48.2 30.2 50% 42 30.23 0.0
10 11:15 N 10 G 21 10.00 Fair CLR 48.2 28.4 46% 44 30.23 0.0
10 10:55 N 12 G 20 10.00 Fair CLR 46.4 30.2 53% 42 30.22 0.0
10 10:35 N 13 G 22 10.00 Fair CLR 46.4 28.4 50% 41 30.23 0.0
10 10:15 N 13 G 18 10.00 Fair CLR 44.6 28.4 53% 39 30.22 0.0
10 09:55 N 14 G 18 10.00 Fair CLR 44.6 28.4 53% 39 30.22 0.0
10 09:35 N 15 10.00 Fair CLR 44.6 28.4 53% 38 30.22 0.0
10 09:15 N 14 G 18 10.00 Fair CLR 42.8 28.4 57% 36 30.22 0.0
10 08:55 N 13 10.00 Partly Cloudy SCT075 42.8 28.4 57% 37 30.21 0.0
10 08:35 N 13 10.00 Fair CLR 42.8 28.4 57% 37 30.21 0.0
10 08:15 N 13 10.00 Partly Cloudy SCT075 41 28.4 61% 34 30.2 0.0
10 07:55 N 15 10.00 Partly Cloudy SCT075 39.2 28.4 65% 31 30.19 0.0
10 07:35 N 10 10.00 Fair CLR 39.2 28.4 65% 33 30.19 0.0
10 07:15 N 10 10.00 Partly Cloudy SCT075 39.2 28.4 65% 33 30.18 0.0
10 06:55 N 12 10.00 Partly Cloudy SCT085 39.2 30.2 70% 33 30.16 0.0
10 06:35 N 7 10.00 Overcast OVC085 39.2 30.2 70% 35 30.15 0.0
10 06:15 NE 7 10.00 Overcast OVC085 39.2 30.2 70% 35 30.15 0.0
10 05:55 NE 8 10.00 Overcast OVC085 41 30.2 66% 36 30.14 0.0
10 05:35 NE 10 10.00 Overcast OVC085 41 30.2 66% 35 30.13 0.0
10 05:15 NE 10 10.00 Overcast OVC085 42.8 32 66% 38 30.12 0.0
10 04:55 N 13 10.00 Overcast OVC085 42.8 32 66% 37 30.11 0.0
10 04:35 N 12 10.00 Overcast OVC095 42.8 30.2 61% 37 30.1 0.0
10 04:15 N 10 10.00 Overcast OVC095 42.8 30.2 61% 38 30.1 0.0
10 03:55 N 8 10.00 Overcast OVC095 42.8 32 66% 39 30.09 0.0
10 03:35 N 6 10.00 Overcast OVC095 42.8 32 66% 40 30.08 0.0
10 03:15 N 5 10.00 Overcast OVC095 42.8 32 66% 41 30.07 0.0
10 02:55 N 6 10.00 Overcast OVC095 42.8 32 66% 40 30.07 0.0
10 02:35 NE 3 10.00 Overcast OVC095 42.8 32 66% 30.06 0.0
10 02:15 N 5 10.00 Overcast OVC095 44.6 32 61% 43 30.06 0.0
10 01:55 NE 6 10.00 Overcast OVC095 44.6 32 61% 42 30.06 0.0
10 01:35 N 6 10.00 Overcast OVC095 42.8 32 66% 40 30.05 0.0
10 01:15 N 3 10.00 Overcast OVC095 42.8 32 66% 30.04 0.0
10 00:55 N 3 10.00 Overcast OVC095 44.6 32 61% 30.04 0.0
10 00:35 Calm 10.00 Overcast OVC095 44.6 30.2 57% 30.02 0.0
10 00:15 Calm 10.00 Overcast OVC095 44.6 30.2 57% 30.02 0.0
09 23:55 NE 5 10.00 Overcast OVC095 44.6 30.2 57% 43 30.01 0.0
09 23:35 Calm 10.00 Mostly Cloudy BKN095 44.6 30.2 57% 30.01 0.0
09 23:15 Calm 10.00 Mostly Cloudy BKN095 44.6 30.2 57% 30.01 0.0
09 22:55 Calm 10.00 Overcast OVC095 46.4 32 57% 30 0.0
09 22:35 Calm 10.00 Overcast OVC095 46.4 30.2 53% 30 0.0
09 22:15 Calm 10.00 Mostly Cloudy BKN095 46.4 30.2 53% 29.99 0.0
09 21:55 Calm 10.00 Mostly Cloudy BKN095 48.2 30.2 50% 29.99 0.0
09 21:35 Calm 10.00 Overcast OVC095 46.4 30.2 53% 29.98 0.0
09 21:15 Calm 10.00 Overcast OVC095 48.2 30.2 50% 29.98 0.0
09 20:55 N 5 10.00 Overcast OVC095 50 30.2 47% 49 29.97 0.0
09 20:35 N 7 10.00 Overcast OVC095 51.8 30.2 44% 29.97 0.0
09 20:15 NW 12 10.00 Overcast OVC095 53.6 30.2 41% 29.96 0.0
09 19:55 N 13 10.00 Overcast OVC095 53.6 30.2 41% 29.96 0.0
09 19:35 N 12 10.00 Overcast OVC095 53.6 30.2 41% 29.95 0.0
09 19:15 N 14 10.00 Overcast OVC085 55.4 30.2 38% 29.95 0.0
09 18:55 N 16 10.00 Mostly Cloudy BKN085 55.4 30.2 38% 29.95 0.0
09 18:35 N 17 G 22 10.00 Mostly Cloudy BKN085 55.4 32 41% 29.94 0.0
09 18:15 NW 17 G 24 10.00 Mostly Cloudy BKN085 55.4 32 41% 29.94 0.0
09 17:55 N 18 G 23 10.00 Overcast OVC085 55.4 32 41% 29.94 0.0
09 17:35 N 16 10.00 Overcast SCT075 OVC085 55.4 32 41% 29.93 0.0
09 17:15 NW 14 G 30 10.00 Mostly Cloudy BKN075 57.2 33.8 41% 29.93 0.0
09 16:55 NW 16 G 26 10.00 Mostly Cloudy BKN075 59 33.8 39% 29.93 0.0
09 16:35 N 10 G 22 10.00 Partly Cloudy SCT085 57.2 33.8 41% 29.93 0.0
09 16:15 NW 14 G 24 10.00 Partly Cloudy SCT070 55.4 32 41% 29.93 0.0
09 15:55 NW 20 10.00 Partly Cloudy SCT070 55.4 32 41% 29.93 0.0
09 15:35 NW 16 G 28 10.00 Partly Cloudy SCT070 57.2 32 39% 29.93 0.0
09 15:15 N 22 G 40 10.00 Partly Cloudy and Breezy SCT070 57.2 33.8 41% 29.93 0.0
09 14:55 NW 20 G 28 10.00 Partly Cloudy SCT060 55.4 33.8 44% 29.92 0.0
09 14:35 NW 15 G 25 10.00 Partly Cloudy SCT060 57.2 33.8 41% 29.92 0.0
09 14:15 N 18 G 26 10.00 Partly Cloudy SCT060 55.4 33.8 44% 29.92 0.0
09 13:55 N 21 G 29 10.00 Partly Cloudy and Breezy SCT060 55.4 33.8 44% 29.92 0.0
09 13:35 NW 22 G 28 10.00 Partly Cloudy and Breezy SCT050 55.4 33.8 44% 29.92 0.0
09 13:15 NW 17 G 28 10.00 Fair CLR 53.6 33.8 47% 29.92 0.0
09 12:55 NW 13 G 28 10.00 Fair CLR 53.6 33.8 47% 29.92 0.0
09 12:35 N 17 G 25 10.00 Partly Cloudy SCT050 51.8 33.8 50% 29.92 0.0
09 12:15 NW 18 10.00 Partly Cloudy SCT050 51.8 33.8 50% 29.92 0.0
09 11:55 Calm 10.00 Fair CLR 50 33.8 54% 29.92 0.0
09 11:35 Calm 10.00 Fair CLR 50 33.8 54% 29.91 0.0
09 11:15 NW 20 G 25 10.00 Fair CLR 48.2 33.8 58% 42 29.91 0.0
09 10:55 N 17 G 21 10.00 Partly Cloudy SCT043 48.2 33.8 58% 42 29.9 0.0
09 10:35 N 17 G 23 10.00 Fair CLR 46.4 33.8 62% 40 29.9 0.0
09 10:15 N 17 G 23 10.00 Fair CLR 46.4 33.8 62% 40 29.89 0.0
09 09:55 N 17 G 25 10.00 Fair CLR 46.4 33.8 62% 40 29.89 0.0
09 09:35 N 22 10.00 Fair and Breezy CLR 44.6 33.8 66% 37 29.88 0.0
09 09:15 N 18 10.00 Fair CLR 44.6 33.8 66% 37 29.87 0.0
09 08:55 N 22 G 25 10.00 Fair and Breezy CLR 44.6 33.8 66% 37 29.87 0.0
09 08:35 N 21 10.00 Fair and Breezy CLR 42.8 33.8 71% 35 29.86 0.0
09 08:15 N 17 10.00 Fair CLR 42.8 33.8 71% 35 29.85 0.0
09 07:55 N 18 G 22 10.00 Fair CLR 42.8 35.6 76% 35 29.84 0.0
09 07:35 N 15 10.00 Partly Cloudy SCT080 41 35.6 81% 34 29.83 0.0
09 07:15 N 13 10.00 Mostly Cloudy BKN080 39.2 33.8 81% 32 29.82 0.0
09 06:55 N 14 10.00 Overcast OVC080 39.2 33.8 81% 32 29.81 0.0
09 06:35 N 13 10.00 Overcast OVC080 39.2 33.8 81% 32 29.8 0.0
09 06:15 N 14 10.00 Mostly Cloudy BKN080 37.4 33.8 87% 30 29.78 0.0
09 05:55 N 12 10.00 Fair CLR 37.4 33.8 87% 30 29.77 0.0
09 05:35 N 10 10.00 Fair CLR 39.2 35.6 87% 33 29.76 0.0
09 05:15 NW 13 10.00 Fair CLR 39.2 37.4 93% 32 29.75 0.0
09 04:55 NW 8 10.00 Fair CLR 39.2 37.4 93% 34 29.74 0.0
09 04:35 NW 7 10.00 Fair CLR 39.2 37.4 93% 35 29.74 0.0
09 04:15 NW 9 10.00 Fair CLR 39.2 37.4 93% 34 29.73 0.0
09 03:55 NW 6 10.00 Fair CLR 41 37.4 87% 38 29.72 0.0
09 03:35 N 7 10.00 Partly Cloudy SCT050 42.8 39.2 87% 39 29.7 0.0
09 03:15 N 7 10.00 Mostly Cloudy BKN050 44.6 39.2 81% 41 29.7 0.0
09 02:55 N 8 10.00 Mostly Cloudy BKN048 44.6 41 87% 41 29.7 0.0
09 02:35 N 9 10.00 Mostly Cloudy SCT050 BKN065 44.6 39.2 81% 40 29.69 0.0
09 02:15 N 10 10.00 Overcast SCT042 OVC065 46.4 42.8 87% 42 29.68 0.0
09 01:55 N 12 10.00 Overcast BKN042 BKN050 OVC060 46.4 42.8 87% 42 29.68 0.0
09 01:35 N 8 10.00 Mostly Cloudy BKN050 46.4 44.6 93% 43 29.68 0.0
09 01:15 Calm 10.00 Overcast SCT050 BKN080 OVC090 46.4 44.6 93% 29.66 0.0
09 00:55 N 3 10.00 Overcast OVC080 46.4 44.6 93% 29.66 0.0
09 00:35 N 6 10.00 Overcast SCT048 SCT060 OVC070 46.4 44.6 93% 44 29.66 0.0
09 00:15 N 8 10.00 Light Rain SCT043 BKN050 OVC060 46.4 42.8 87% 43 29.66 0.0
08 23:55 N 13 10.00 Rain SCT033 BKN046 OVC060 46.4 44.6 93% 41 29.66 0.0
08 23:35 N 16 10.00 Rain SCT036 SCT044 OVC060 46.4 44.6 93% 40 29.69 0.0
08 23:15 N 22 G 26 10.00 Light Rain and Breezy SCT041 SCT048 OVC060 48.2 44.6 87% 41 29.69 0.0 0.01
08 22:55 N 20 G 25 10.00 Light Rain SCT043 BKN050 OVC060 48.2 46.4 94% 42 29.68 0.0
08 22:35 N 25 G 36 7.00 Heavy Rain and Breezy SCT042 BKN050 OVC055 50 46.4 88% 43 29.68 0.0
08 22:15 NW 25 G 29 10.00 Light Rain and Breezy SCT040 BKN060 OVC080 55.4 44.6 67% 29.66 0.0
08 21:55 NW 8 10.00 Light Rain SCT060 BKN080 OVC100 55.4 37.4 51% 29.62 0.0
08 21:35 Calm 10.00 Mostly Cloudy BKN100 55.4 37.4 51% 29.59 0.0
08 21:15 Calm 10.00 Partly Cloudy SCT120 57.2 37.4 48% 29.59 0.0
08 20:55 Calm 10.00 Fair CLR 57.2 35.6 44% 29.6 0.0
08 20:35 N 7 10.00 Fair CLR 60.8 37.4 42% 29.6 0.0
08 20:15 NW 12 10.00 Fair CLR 62.6 37.4 39% 29.61 0.0
08 19:55 NW 17 G 22 10.00 Fair CLR 64.4 39.2 40% 29.61 0.0
08 19:35 NW 18 G 24 10.00 Fair CLR 64.4 39.2 40% 29.61 0.0
08 19:15 NW 21 G 26 10.00 Fair and Breezy CLR 66.2 39.2 37% 29.62 0.0
08 18:55 NW 20 10.00 Partly Cloudy SCT085 66.2 39.2 37% 29.62 0.0
08 18:35 NW 23 G 30 10.00 Partly Cloudy and Breezy SCT085 66.2 39.2 37% 29.63 0.0
08 18:15 NW 22 G 25 10.00 Partly Cloudy and Breezy SCT085 66.2 37.4 35% 29.64 0.0
08 17:55 NW 21 G 26 10.00 Fair and Breezy CLR 66.2 37.4 35% 29.64 0.0
08 17:35 NW 24 10.00 Fair and Breezy CLR 66.2 37.4 35% 29.64 0.0
08 17:15 NW 22 10.00 Fair and Breezy CLR 68 37.4 33% 29.65 0.0
08 16:55 NW 22 G 40 10.00 Fair and Breezy CLR 66.2 37.4 35% 29.65 0.0
08 16:35 NW 25 G 36 10.00 Fair and Breezy CLR 66.2 37.4 35% 29.65 0.0
08 16:15 N 24 G 31 10.00 Fair and Breezy CLR 66.2 37.4 35% 29.65 0.0
08 15:55 NW 28 G 36 10.00 Fair and Windy CLR 68 37.4 33% 29.65 0.0
08 15:35 NW 17 G 35 10.00 Fair CLR 66.2 37.4 35% 29.65 0.0
08 15:15 NW 26 G 33 10.00 Fair and Windy CLR 68 37.4 33% 29.65 0.0
08 14:55 NW 28 G 39 10.00 Fair and Windy CLR 66.2 37.4 35% 29.64 0.0
08 14:35 NW 25 G 33 10.00 Fair and Breezy CLR 68 37.4 33% 29.64 0.0
08 14:15 NW 23 G 35 10.00 Fair and Breezy CLR 68 39.2 35% 29.64 0.0
08 13:55 NW 28 G 33 10.00 Fair and Windy CLR 69.8 39.2 33% 29.64 0.0
08 13:35 NW 23 G 31 10.00 Fair and Breezy CLR 69.8 37.4 31% 29.64 0.0
08 13:15 W 18 G 26 10.00 Partly Cloudy SCT100 66.2 35.6 32% 29.64 0.0
08 12:55 NW 22 G 30 10.00 Partly Cloudy and Breezy SCT100 66.2 35.6 32% 29.65 0.0
08 12:35 W 10 G 20 10.00 Partly Cloudy SCT100 66.2 35.6 32% 29.66 0.0
08 12:15 NW 10 G 23 10.00 Partly Cloudy SCT100 66.2 35.6 32% 29.67 0.0
08 11:55 W 9 G 18 10.00 Partly Cloudy SCT100 62.6 33.8 34% 29.67 0.0
08 11:35 W 10 G 18 10.00 Partly Cloudy SCT100 62.6 35.6 37% 29.68 0.0
08 11:15 SW 10 10.00 Partly Cloudy SCT100 62.6 33.8 34% 29.69 0.0
08 10:55 SW 7 10.00 Partly Cloudy SCT100 60.8 33.8 36% 29.69 0.0
08 10:35 SW 7 10.00 Partly Cloudy SCT100 59 33.8 39% 29.7 0.0
08 10:15 SW 7 10.00 Partly Cloudy SCT090 55.4 32 41% 29.7 0.0
08 09:55 SW 10 10.00 Partly Cloudy SCT090 57.2 32 39% 29.7 0.0
08 09:35 S 8 10.00 Fair CLR 57.2 32 39% 29.7 0.0
08 09:15 S 7 10.00 Partly Cloudy SCT100 55.4 32 41% 29.71 0.0
08 08:55 S 8 10.00 Mostly Cloudy BKN100 53.6 30.2 41% 29.71 0.0
08 08:35 S 5 10.00 Partly Cloudy SCT100 51.8 32 47% 29.72 0.0
08 08:15 S 5 10.00 Partly Cloudy SCT110 48.2 32 54% 47 29.73 0.0
08 07:55 SE 5 10.00 Mostly Cloudy BKN110 46.4 32 57% 45 29.73 0.0
08 07:35 S 5 10.00 Partly Cloudy SCT110 44.6 30.2 57% 43 29.73 0.0
08 07:15 S 3 10.00 Partly Cloudy SCT100 42.8 28.4 57% 29.73 0.0
08 06:55 S 6 10.00 Fair CLR 39.2 28.4 65% 36 29.73 0.0
08 06:35 S 3 10.00 Partly Cloudy SCT110 39.2 26.6 61% 29.73 0.0
08 06:15 S 7 10.00 Mostly Cloudy BKN100 37.4 28.4 70% 33 29.73 0.0
08 05:55 S 6 10.00 Mostly Cloudy BKN090 39.2 28.4 65% 36 29.74 0.0
08 05:35 S 5 10.00 Mostly Cloudy BKN100 37.4 28.4 70% 34 29.74 0.0
08 05:15 S 3 10.00 Mostly Cloudy BKN100 37.4 28.4 70% 29.74 0.0
08 04:55 SE 5 10.00 Mostly Cloudy BKN110 35.6 26.6 70% 32 29.75 0.0
08 04:35 Calm 10.00 Mostly Cloudy BKN110 35.6 26.6 70% 29.76 0.0
08 04:15 Calm 10.00 Partly Cloudy SCT100 37.4 24.8 60% 29.76 0.0
08 03:55 Calm 10.00 Mostly Cloudy BKN100 35.6 24.8 65% 29.76 0.0
08 03:35 Calm 10.00 Mostly Cloudy BKN100 37.4 24.8 60% 29.76 0.0
08 03:15 Calm 10.00 Partly Cloudy SCT095 37.4 24.8 60% 29.76 0.0
08 02:55 Calm 10.00 Fair CLR 39.2 24.8 56% 29.77 0.0
08 02:35 Calm 10.00 Fair CLR 37.4 23 56% 29.77 0.0
08 02:15 NW 5 10.00 Fair CLR 33.8 21.2 60% 30 29.77 0.0
08 01:55 Calm 10.00 Fair CLR 37.4 23 56% 29.77 0.0
08 01:35 Calm 10.00 Fair CLR 37.4 21.2 52% 29.77 0.0
08 01:15 Calm 10.00 Fair CLR 37.4 23 56% 29.77 0.0
08 00:55 Calm 10.00 Fair CLR 37.4 21.2 52% 29.77 0.0
08 00:35 Calm 10.00 Fair CLR 35.6 21.2 56% 29.77 0.0
08 00:15 Calm 10.00 Fair CLR 42.8 26.6 53% 29.77 0.0
07 23:55 Calm 10.00 Fair CLR 42.8 26.6 53% 29.77 0.0
07 23:35 SE 3 10.00 Fair CLR 42.8 28.4 57% 29.77 0.0
07 23:15 Calm 10.00 Fair CLR 44.6 26.6 49% 29.78 0.0
07 22:55 E 3 10.00 Fair CLR 46.4 26.6 46% 29.78 0.0
07 22:35 Calm 10.00 Fair CLR 46.4 26.6 46% 29.78 0.0
07 22:15 E 3 10.00 Fair CLR 48.2 24.8 40% 29.78 0.0
07 21:55 NE 3 10.00 Fair CLR 48.2 24.8 40% 29.78 0.0
07 21:35 NE 6 10.00 Fair CLR 50 26.6 40% 48 29.78 0.0
07 21:15 N 5 10.00 Fair CLR 51.8 26.6 38% 29.78 0.0
07 20:55 N 7 10.00 Fair CLR 51.8 26.6 38% 29.77 0.0
07 20:35 N 8 10.00 Fair CLR 53.6 28.4 38% 29.77 0.0
07 20:15 N 9 10.00 Fair CLR 57.2 28.4 33% 29.76 0.0
07 19:55 NW 12 10.00 Fair CLR 60.8 28.4 29% 29.75 0.0
07 19:35 NW 13 10.00 Fair CLR 60.8 30.2 31% 29.75 0.0
07 19:15 NW 12 G 16 10.00 Fair CLR 60.8 30.2 31% 29.75 0.0
07 18:55 NW 15 G 20 10.00 Fair CLR 62.6 30.2 30% 29.75 0.0
07 18:35 NW 12 G 20 10.00 Fair CLR 62.6 30.2 30% 29.75 0.0
07 18:15 NW 8 10.00 Partly Cloudy SCT095 62.6 30.2 30% 29.76 0.0
07 17:55 NW 14 G 24 10.00 Partly Cloudy SCT095 62.6 30.2 30% 29.76 0.0
07 17:35 NW 14 G 22 10.00 Partly Cloudy SCT095 62.6 30.2 30% 29.76 0.0
07 17:15 W 15 G 22 10.00 Partly Cloudy SCT095 62.6 32 32% 29.77 0.0
07 16:55 NW 16 G 22 10.00 Fair CLR 60.8 30.2 31% 29.77 0.0
07 16:35 NW 13 G 16 10.00 Partly Cloudy SCT095 60.8 30.2 31% 29.78 0.0
07 16:15 NW 12 G 28 10.00 Partly Cloudy SCT095 60.8 30.2 31% 29.78 0.0
07 15:55 NW 9 10.00 Partly Cloudy SCT095 60.8 30.2 31% 29.79 0.0
07 15:35 NW 12 G 23 10.00 Partly Cloudy SCT085 60.8 30.2 31% 29.79 0.0
07 15:15 NW 14 G 20 10.00 Partly Cloudy SCT085 60.8 30.2 31% 29.8 0.0
07 14:55 NW 10 G 23 10.00 Partly Cloudy SCT085 59 30.2 34% 29.81 0.0
07 14:35 NW 8 10.00 Partly Cloudy SCT085 57.2 28.4 33% 29.81 0.0
07 14:15 W 18 G 26 10.00 Partly Cloudy SCT085 59 30.2 34% 29.81 0.0
07 13:55 NW 20 G 23 10.00 Partly Cloudy SCT085 57.2 28.4 33% 29.82 0.0
07 13:35 NW 16 G 20 10.00 Partly Cloudy SCT085 57.2 28.4 33% 29.82 0.0
07 13:15 W 14 G 24 10.00 Partly Cloudy SCT085 57.2 30.2 36% 29.83 0.0
07 12:55 W 16 G 26 10.00 Partly Cloudy SCT075 57.2 30.2 36% 29.83 0.0
07 12:35 W 14 G 23 10.00 Mostly Cloudy BKN075 55.4 28.4 36% 29.84 0.0
07 12:15 NW 15 G 23 10.00 Partly Cloudy SCT075 55.4 28.4 36% 29.85 0.0
Date Time (cdt) Wind (mph) Vis. (mi.) Weather Sky Cond. Air Dwpt Max. Min. Relative Humidity Wind Chill (°F) Heat Index (°F) altimeter (in) sea level (mb) 1 hr 3 hr 6 hr
6 hour
Temperature (ºF) Pressure Precipitation (in)